createdAt,value
2019-03-08T00:02:21.807Z,69.10
2019-03-08T00:04:50.558Z,69.40
2019-03-08T00:07:19.048Z,69.60
2019-03-08T00:09:47.545Z,69.50
2019-03-08T00:12:16.194Z,69.40
2019-03-08T00:14:44.790Z,69.50
2019-03-08T00:17:13.352Z,69.60
2019-03-08T00:19:41.941Z,69.50
2019-03-08T00:22:10.511Z,69.60
2019-03-08T00:24:39.008Z,69.70
2019-03-08T00:27:07.487Z,69.70
2019-03-08T00:29:36.061Z,70.20
2019-03-08T00:32:04.606Z,70.80
2019-03-08T00:34:33.164Z,70.40
2019-03-08T00:37:01.641Z,70.50
2019-03-08T00:39:30.123Z,70.70
2019-03-08T00:41:58.693Z,70.60
2019-03-08T00:44:27.221Z,70.60
2019-03-08T00:46:55.702Z,70.30
2019-03-08T00:49:24.171Z,70.20
2019-03-08T00:51:52.704Z,70.20
2019-03-08T00:54:21.166Z,70.10
2019-03-08T00:56:49.682Z,70.00
2019-03-08T00:59:18.215Z,70.50
2019-03-08T01:01:46.789Z,71.00
2019-03-08T01:04:15.282Z,71.20
2019-03-08T01:06:43.820Z,71.20
2019-03-08T01:09:12.296Z,71.30
2019-03-08T01:11:40.763Z,72.00
2019-03-08T01:14:09.261Z,72.40
2019-03-08T01:16:37.743Z,72.50
2019-03-08T01:19:06.253Z,72.90
2019-03-08T01:21:34.726Z,73.10
2019-03-08T01:24:03.238Z,72.90
2019-03-08T01:26:31.791Z,73.20
2019-03-08T01:29:00.303Z,73.20
2019-03-08T01:31:28.779Z,72.90
2019-03-08T01:33:57.322Z,72.80
2019-03-08T01:36:25.813Z,72.70
2019-03-08T01:38:54.291Z,72.70
2019-03-08T01:41:22.772Z,73.00
2019-03-08T01:43:51.254Z,73.20
2019-03-08T01:46:19.740Z,73.50
2019-03-08T01:48:48.233Z,73.00
2019-03-08T01:51:16.726Z,73.20
2019-03-08T01:53:45.202Z,72.90
2019-03-08T01:56:13.735Z,73.50
2019-03-08T01:58:42.195Z,74.30
2019-03-08T02:01:10.695Z,75.10
2019-03-08T02:03:39.184Z,75.30
2019-03-08T02:06:07.654Z,75.30
2019-03-08T02:08:36.176Z,75.00
2019-03-08T02:11:04.644Z,75.00
2019-03-08T02:13:33.144Z,75.00
2019-03-08T02:16:01.607Z,75.20
2019-03-08T02:18:30.144Z,75.20
2019-03-08T02:21:06.410Z,75.40
2019-03-08T02:23:28.771Z,75.00
2019-03-08T02:25:57.254Z,74.90
2019-03-08T02:28:25.772Z,75.30
2019-03-08T02:30:54.229Z,76.00
2019-03-08T02:33:22.718Z,76.80
2019-03-08T02:35:51.234Z,77.10
2019-03-08T02:38:19.699Z,77.10
2019-03-08T02:40:48.188Z,77.10
2019-03-08T02:43:17.793Z,77.10
2019-03-08T02:45:46.299Z,77.50
2019-03-08T02:48:14.778Z,77.30
2019-03-08T02:50:43.297Z,77.00
2019-03-08T02:53:11.760Z,76.80
2019-03-08T02:55:40.255Z,76.80
2019-03-08T02:58:08.730Z,77.10
2019-03-08T03:00:43.395Z,77.40
2019-03-08T03:03:12.113Z,77.60
2019-03-08T03:05:40.599Z,77.50
2019-03-08T03:08:09.171Z,77.50
2019-03-08T03:10:37.634Z,77.60
2019-03-08T03:13:06.119Z,77.80
2019-03-08T03:15:34.678Z,77.80
2019-03-08T03:18:03.163Z,77.50
2019-03-08T03:20:31.650Z,77.40
2019-03-08T03:23:00.135Z,77.90
2019-03-08T03:25:28.650Z,78.30
2019-03-08T03:27:57.129Z,78.60
2019-03-08T03:30:25.609Z,78.80
2019-03-08T03:32:54.098Z,78.80
2019-03-08T03:35:22.560Z,78.50
2019-03-08T03:37:51.161Z,78.80
2019-03-08T03:40:19.872Z,78.90
2019-03-08T03:42:48.373Z,79.00
2019-03-08T03:45:19.051Z,79.40
2019-03-08T03:47:47.569Z,79.10
2019-03-08T03:50:16.038Z,79.10
2019-03-08T03:52:44.545Z,78.70
2019-03-08T03:55:15.165Z,78.50
2019-03-08T03:57:43.632Z,78.30
2019-03-08T04:00:23.163Z,78.30
2019-03-08T04:02:51.652Z,78.20
2019-03-08T04:05:20.142Z,78.50
2019-03-08T04:07:48.595Z,79.00
2019-03-08T04:10:17.577Z,79.70
2019-03-08T04:12:46.023Z,79.70
2019-03-08T04:15:18.791Z,80.10
2019-03-08T04:17:47.591Z,80.50
2019-03-08T04:20:19.811Z,80.50
2019-03-08T04:22:48.356Z,80.50
2019-03-08T04:25:16.834Z,80.30
2019-03-08T04:27:45.353Z,80.00
2019-03-08T04:30:18.982Z,80.00
2019-03-08T04:32:47.449Z,79.80
2019-03-08T04:35:15.933Z,79.60
2019-03-08T04:37:44.414Z,79.50
2019-03-08T04:40:16.058Z,79.70
2019-03-08T04:42:44.530Z,79.70
2019-03-08T04:45:17.800Z,79.60
2019-03-08T04:47:46.282Z,79.70
2019-03-08T04:50:18.495Z,80.00
2019-03-08T04:52:46.962Z,79.80
2019-03-08T04:55:17.837Z,80.30
2019-03-08T04:57:46.911Z,80.10
2019-03-08T05:00:16.437Z,79.70
2019-03-08T05:02:44.909Z,79.80
2019-03-08T05:05:13.476Z,79.70
2019-03-08T05:07:41.988Z,79.70
2019-03-08T05:10:14.958Z,79.90
2019-03-08T05:12:43.561Z,79.90
2019-03-08T05:15:12.027Z,80.30
2019-03-08T05:17:40.505Z,80.90
2019-03-08T05:20:10.061Z,81.70
2019-03-08T05:22:38.543Z,82.10
2019-03-08T05:25:14.168Z,81.80
2019-03-08T05:27:42.640Z,81.70
2019-03-08T05:30:15.372Z,81.90
2019-03-08T05:32:43.849Z,82.20
2019-03-08T05:35:12.810Z,81.80
2019-03-08T05:37:41.298Z,81.30
2019-03-08T05:40:12.067Z,81.00
2019-03-08T05:42:40.539Z,80.90
2019-03-08T05:45:12.976Z,81.40
2019-03-08T05:47:41.448Z,82.00
2019-03-08T05:50:11.954Z,82.00
2019-03-08T05:52:40.818Z,81.80
2019-03-08T05:55:12.684Z,81.90
2019-03-08T05:57:41.186Z,81.90
2019-03-08T06:00:13.943Z,81.80
2019-03-08T06:02:42.431Z,81.80
2019-03-08T06:05:10.904Z,81.90
2019-03-08T06:07:39.590Z,81.90
2019-03-08T06:10:37.916Z,81.80
2019-03-08T06:13:07.357Z,82.40
2019-03-08T06:15:35.846Z,83.50
2019-03-08T06:18:04.406Z,84.30
2019-03-08T06:20:32.877Z,84.60
2019-03-08T06:23:01.368Z,83.80
2019-03-08T06:25:29.840Z,83.40
2019-03-08T06:27:58.346Z,83.30
2019-03-08T06:30:26.802Z,82.70
2019-03-08T06:32:55.312Z,82.20
2019-03-08T06:35:23.803Z,81.60
2019-03-08T06:37:52.320Z,81.40
2019-03-08T06:40:20.806Z,80.90
2019-03-08T06:42:49.279Z,80.70
2019-03-08T06:45:18.452Z,80.30
2019-03-08T06:47:47.225Z,80.00
2019-03-08T06:50:16.011Z,79.40
2019-03-08T06:52:44.491Z,78.80
2019-03-08T06:55:14.135Z,78.70
2019-03-08T06:57:42.628Z,78.70
2019-03-08T07:00:16.000Z,78.00
2019-03-08T07:02:44.490Z,77.70
2019-03-08T07:05:12.974Z,76.80
2019-03-08T07:07:41.470Z,76.30
2019-03-08T07:10:09.939Z,75.70
2019-03-08T07:12:38.438Z,75.40
2019-03-08T07:15:07.206Z,75.20
2019-03-08T07:17:35.982Z,74.50
2019-03-08T07:20:06.947Z,74.00
2019-03-08T07:22:53.022Z,73.40
2019-03-08T07:25:39.307Z,73.30
2019-03-08T07:28:25.369Z,72.90
2019-03-08T07:31:04.143Z,72.70
2019-03-08T07:33:52.550Z,72.90
2019-03-08T07:36:14.951Z,72.80
2019-03-08T07:38:50.883Z,72.20
2019-03-08T07:41:28.229Z,71.60
2019-03-08T07:44:01.441Z,71.20
2019-03-08T07:46:31.574Z,71.00
2019-03-08T07:49:13.475Z,70.60
2019-03-08T07:51:52.622Z,70.60
2019-03-08T07:54:25.484Z,70.50
2019-03-08T07:57:20.265Z,69.40
2019-03-08T07:59:53.994Z,69.20
2019-03-08T08:02:29.324Z,69.10
2019-03-08T08:04:59.460Z,69.00
2019-03-08T08:07:29.592Z,68.20
2019-03-08T08:10:02.438Z,67.00
2019-03-08T08:12:32.551Z,66.90
2019-03-08T08:15:02.707Z,65.50
2019-03-08T08:17:33.283Z,65.10
2019-03-08T08:20:16.311Z,65.00
2019-03-08T08:22:56.315Z,64.80
2019-03-08T08:25:26.452Z,64.70
2019-03-08T08:28:08.484Z,64.40
2019-03-08T08:30:41.589Z,63.50
2019-03-08T08:33:11.711Z,62.40
2019-03-08T08:35:59.622Z,61.90
2019-03-08T08:38:29.755Z,61.20
2019-03-08T08:41:05.644Z,61.20
2019-03-08T08:43:38.439Z,61.00
2019-03-08T08:46:14.485Z,61.30
2019-03-08T08:49:00.766Z,60.50
2019-03-08T08:51:39.831Z,60.50
2019-03-08T08:54:24.885Z,59.90
2019-03-08T08:57:03.735Z,59.30
2019-03-08T08:59:33.842Z,59.10
2019-03-08T09:02:03.977Z,58.50
2019-03-08T09:04:34.098Z,57.80
2019-03-08T09:07:06.962Z,57.90
2019-03-08T09:09:39.695Z,57.00
2019-03-08T09:12:18.824Z,56.30
2019-03-08T09:14:51.839Z,56.00
2019-03-08T09:17:24.650Z,55.80
2019-03-08T09:20:00.433Z,55.60
2019-03-08T09:22:36.369Z,54.00
2019-03-08T09:25:20.939Z,53.10
2019-03-08T09:27:51.284Z,53.00
2019-03-08T09:30:30.401Z,51.20
2019-03-08T09:33:16.733Z,51.30
2019-03-08T09:35:58.655Z,51.30
2019-03-08T09:38:31.542Z,50.40
2019-03-08T09:41:19.662Z,49.50
2019-03-08T09:43:50.142Z,50.00
2019-03-08T09:46:23.012Z,49.80
2019-03-08T09:48:59.043Z,50.00
2019-03-08T09:51:35.007Z,48.50
2019-03-08T09:54:07.876Z,48.30
2019-03-08T09:56:40.691Z,46.50
2019-03-08T09:59:27.383Z,45.90
2019-03-08T10:02:08.988Z,45.90
2019-03-08T10:04:53.953Z,46.30
2019-03-08T10:07:24.081Z,46.50
2019-03-08T10:09:54.274Z,44.90
2019-03-08T10:12:24.721Z,42.90
2019-03-08T10:15:03.909Z,43.10
2019-03-08T10:17:36.808Z,42.30
2019-03-08T10:20:24.320Z,42.20
2019-03-08T10:22:54.446Z,41.00
2019-03-08T10:25:30.343Z,40.40
2019-03-08T10:28:03.324Z,40.50
2019-03-08T10:30:36.254Z,42.20
2019-03-08T10:33:12.255Z,42.10
2019-03-08T10:35:42.439Z,42.50
2019-03-08T10:38:12.562Z,43.20
2019-03-08T10:41:00.777Z,41.70
2019-03-08T10:43:33.602Z,40.80
2019-03-08T10:46:19.812Z,40.40
2019-03-08T10:48:55.984Z,41.30
2019-03-08T10:51:35.606Z,42.30
2019-03-08T10:54:11.401Z,40.20
2019-03-08T10:56:41.542Z,41.40
2019-03-08T10:59:17.414Z,40.40
2019-03-08T11:01:50.285Z,38.80
2019-03-08T11:04:35.219Z,39.20
2019-03-08T11:07:05.436Z,41.00
2019-03-08T11:09:35.779Z,42.90
2019-03-08T11:12:11.615Z,44.70
2019-03-08T11:14:41.751Z,46.40
2019-03-08T11:17:20.793Z,46.40
2019-03-08T11:19:54.152Z,47.60
2019-03-08T11:22:24.492Z,46.50
2019-03-08T11:25:08.097Z,46.60
2019-03-08T11:27:47.645Z,44.30
2019-03-08T11:30:34.025Z,42.20
2019-03-08T11:33:04.256Z,41.00
2019-03-08T11:35:40.103Z,39.60
2019-03-08T11:38:10.221Z,38.10
2019-03-08T11:40:56.299Z,33.90
2019-03-08T11:43:29.151Z,33.80
2019-03-08T11:46:17.146Z,34.60
2019-03-08T11:49:05.290Z,33.90
2019-03-08T11:51:51.554Z,33.30
2019-03-08T11:54:24.329Z,33.90
2019-03-08T11:56:57.150Z,37.00
2019-03-08T11:59:30.062Z,38.00
2019-03-08T12:02:00.175Z,37.60
2019-03-08T12:04:33.001Z,37.10
2019-03-08T12:07:08.752Z,36.90
2019-03-08T12:09:38.888Z,36.30
2019-03-08T12:12:14.699Z,35.80
2019-03-08T12:14:47.579Z,36.00
2019-03-08T12:17:32.603Z,35.50
2019-03-08T12:20:02.731Z,35.60
2019-03-08T12:22:44.671Z,35.80
2019-03-08T12:25:20.635Z,35.50
2019-03-08T12:28:06.840Z,34.80
2019-03-08T12:30:37.300Z,34.50
2019-03-08T12:33:13.266Z,35.20
2019-03-08T12:35:43.394Z,35.90
2019-03-08T12:38:13.507Z,35.20
2019-03-08T12:40:43.643Z,34.70
2019-03-08T12:43:29.631Z,35.00
2019-03-08T12:46:02.521Z,35.50
2019-03-08T12:48:35.307Z,35.30
2019-03-08T12:51:05.483Z,35.20
2019-03-08T12:53:35.607Z,35.70
2019-03-08T12:56:08.576Z,34.90
2019-03-08T12:58:56.476Z,33.80
2019-03-08T13:01:35.330Z,32.40
2019-03-08T13:04:05.460Z,31.70
2019-03-08T13:06:51.684Z,32.50
2019-03-08T13:09:40.008Z,32.20
2019-03-08T13:12:08.496Z,32.30
2019-03-08T13:14:36.966Z,32.10
2019-03-08T13:17:05.460Z,31.50
2019-03-08T13:19:34.333Z,31.70
2019-03-08T13:22:02.812Z,31.10
2019-03-08T13:24:31.350Z,31.10
2019-03-08T13:26:59.817Z,30.40
2019-03-08T13:29:28.302Z,30.00
2019-03-08T13:31:56.802Z,29.40
2019-03-08T13:34:25.304Z,28.10
2019-03-08T13:36:53.778Z,27.60
2019-03-08T13:39:22.253Z,27.80
2019-03-08T13:41:50.821Z,28.20
2019-03-08T13:44:19.443Z,29.30
2019-03-08T13:46:47.911Z,29.20
2019-03-08T13:49:16.388Z,29.00
2019-03-08T13:51:45.024Z,28.50
2019-03-08T13:54:13.493Z,28.40
2019-03-08T13:56:41.982Z,28.10
2019-03-08T13:59:10.481Z,27.70
2019-03-08T14:01:38.956Z,27.20
2019-03-08T14:04:07.453Z,27.50
2019-03-08T14:06:35.931Z,28.00
2019-03-08T14:09:05.610Z,26.90
2019-03-08T14:11:34.089Z,27.30
2019-03-08T14:14:02.599Z,26.90
2019-03-08T14:16:31.067Z,27.60
2019-03-08T14:18:59.574Z,27.30
2019-03-08T14:21:28.046Z,27.40
2019-03-08T14:23:56.550Z,27.00
2019-03-08T14:26:25.112Z,27.10
2019-03-08T14:28:53.618Z,26.80
2019-03-08T14:31:29.587Z,26.40
2019-03-08T14:33:58.069Z,26.70
2019-03-08T14:36:26.586Z,27.40
2019-03-08T14:38:55.259Z,27.80
2019-03-08T14:41:37.129Z,27.60
2019-03-08T14:44:09.920Z,28.10
2019-03-08T14:46:45.775Z,28.30
2019-03-08T14:49:14.257Z,28.60
2019-03-08T14:51:44.701Z,28.50
2019-03-08T14:54:12.867Z,29.10
2019-03-08T14:56:41.566Z,28.20
2019-03-08T14:59:11.280Z,27.40
2019-03-08T15:01:41.248Z,27.20
2019-03-08T15:04:09.852Z,27.00
2019-03-08T15:06:38.329Z,27.00
2019-03-08T15:09:10.780Z,26.70
2019-03-08T15:11:39.280Z,26.50
2019-03-08T15:14:07.776Z,26.60
2019-03-08T15:16:39.106Z,26.50
2019-03-08T15:19:06.413Z,27.50
2019-03-08T15:21:37.073Z,27.20
2019-03-08T15:24:05.111Z,26.60
2019-03-08T15:26:33.619Z,27.70
2019-03-08T15:29:02.096Z,27.60
2019-03-08T15:31:30.608Z,27.90
2019-03-08T15:33:59.234Z,27.10
2019-03-08T15:36:28.024Z,26.90
2019-03-08T15:38:58.834Z,27.10
2019-03-08T15:41:26.796Z,26.90
2019-03-08T15:43:55.355Z,26.70
2019-03-08T15:46:23.841Z,27.20
2019-03-08T15:48:53.498Z,27.30
2019-03-08T15:51:25.419Z,27.20
2019-03-08T15:53:54.373Z,27.50
2019-03-08T15:56:23.073Z,28.30
2019-03-08T15:58:51.555Z,29.40
2019-03-08T16:01:20.035Z,31.40
2019-03-08T16:03:48.529Z,31.90
2019-03-08T16:06:19.686Z,32.70
2019-03-08T16:08:49.691Z,33.30
2019-03-08T16:11:18.315Z,34.10
2019-03-08T16:13:46.814Z,34.90
2019-03-08T16:16:15.300Z,36.00
2019-03-08T16:18:46.901Z,36.70
2019-03-08T16:21:14.388Z,37.10
2019-03-08T16:23:43.200Z,36.90
2019-03-08T16:26:11.699Z,37.50
2019-03-08T16:28:40.182Z,37.50
2019-03-08T16:31:12.934Z,38.00
2019-03-08T16:33:43.025Z,38.20
2019-03-08T16:36:31.251Z,38.50
2019-03-08T16:39:03.992Z,38.70
2019-03-08T16:41:37.068Z,38.70
2019-03-08T16:44:07.320Z,39.00
2019-03-08T16:46:40.194Z,39.70
2019-03-08T16:49:30.790Z,40.00
2019-03-08T16:52:06.655Z,40.30
2019-03-08T16:54:36.974Z,40.90
2019-03-08T16:57:07.146Z,41.20
2019-03-08T16:59:54.835Z,41.30
2019-03-08T17:02:41.043Z,41.50
2019-03-08T17:05:27.172Z,41.60
2019-03-08T17:07:57.345Z,41.50
2019-03-08T17:10:30.067Z,41.60
2019-03-08T17:13:19.414Z,42.10
2019-03-08T17:15:50.016Z,42.70
2019-03-08T17:18:29.177Z,42.50
2019-03-08T17:21:02.084Z,42.40
2019-03-08T17:23:35.136Z,42.80
2019-03-08T17:26:08.091Z,43.50
2019-03-08T17:28:39.058Z,43.40
2019-03-08T17:31:18.131Z,43.80
2019-03-08T17:33:48.302Z,44.20
2019-03-08T17:36:21.137Z,44.40
2019-03-08T17:39:00.145Z,44.70
2019-03-08T17:41:36.027Z,44.90
2019-03-08T17:44:22.127Z,45.10
2019-03-08T17:47:08.394Z,45.40
2019-03-08T17:49:38.622Z,45.70
2019-03-08T17:52:23.782Z,45.80
2019-03-08T17:55:05.404Z,45.70
2019-03-08T17:57:35.541Z,45.60
2019-03-08T18:00:11.402Z,45.70
2019-03-08T18:02:47.753Z,45.60
2019-03-08T18:05:21.400Z,45.20
2019-03-08T18:08:07.776Z,45.50
2019-03-08T18:10:53.853Z,45.60
2019-03-08T18:13:40.040Z,45.60
2019-03-08T18:16:12.503Z,46.00
2019-03-08T18:18:42.644Z,46.20
2019-03-08T18:21:27.685Z,46.20
2019-03-08T18:24:04.993Z,46.60
2019-03-08T18:26:38.027Z,45.90
2019-03-08T18:29:15.848Z,45.60
2019-03-08T18:31:51.656Z,45.80
2019-03-08T18:34:21.821Z,45.20
2019-03-08T18:36:51.941Z,45.40
2019-03-08T18:39:22.080Z,45.20
2019-03-08T18:41:52.186Z,45.30
2019-03-08T18:44:37.152Z,45.10
2019-03-08T18:47:07.260Z,45.50
2019-03-08T18:49:43.101Z,45.60
2019-03-08T18:52:13.207Z,45.80
2019-03-08T18:54:43.343Z,46.20
2019-03-08T18:57:16.168Z,46.30
2019-03-08T18:59:46.296Z,46.50
2019-03-08T19:02:22.231Z,46.70
2019-03-08T19:04:55.385Z,47.00
2019-03-08T19:07:34.297Z,47.40
2019-03-08T19:10:16.370Z,47.50
2019-03-08T19:13:02.531Z,48.00
2019-03-08T19:15:35.512Z,48.20
2019-03-08T19:18:08.473Z,48.20
2019-03-08T19:20:40.465Z,48.80
2019-03-08T19:23:10.572Z,48.60
2019-03-08T19:25:56.833Z,49.00
2019-03-08T19:28:44.924Z,48.90
2019-03-08T19:31:15.085Z,49.20
2019-03-08T19:34:05.875Z,49.60
2019-03-08T19:36:38.762Z,49.50
2019-03-08T19:39:08.979Z,49.40
2019-03-08T19:41:57.109Z,49.80
2019-03-08T19:44:27.417Z,49.90
2019-03-08T19:46:57.571Z,49.90
2019-03-08T19:49:27.779Z,49.80
2019-03-08T19:51:57.913Z,49.90
2019-03-08T19:54:33.681Z,50.30
2019-03-08T19:57:06.471Z,50.70
2019-03-08T19:59:51.359Z,51.60
2019-03-08T20:02:21.505Z,51.70
2019-03-08T20:05:03.564Z,52.10
2019-03-08T20:07:33.737Z,51.70
2019-03-08T20:10:18.745Z,51.60
2019-03-08T20:12:57.645Z,51.40
2019-03-08T20:15:33.399Z,51.70
2019-03-08T20:18:13.710Z,51.90
2019-03-08T20:20:43.922Z,52.10
2019-03-08T20:23:15.880Z,51.60
2019-03-08T20:26:03.821Z,51.50
2019-03-08T20:28:43.190Z,51.60
2019-03-08T20:31:19.007Z,51.40
2019-03-08T20:33:55.274Z,51.70
2019-03-08T20:36:25.902Z,51.60
2019-03-08T20:38:56.625Z,51.80
2019-03-08T20:41:42.894Z,51.90
2019-03-08T20:44:16.848Z,51.90
2019-03-08T20:46:52.697Z,51.20
2019-03-08T20:49:21.256Z,52.00
2019-03-08T20:51:49.749Z,52.60
2019-03-08T20:54:18.227Z,52.50
2019-03-08T20:56:46.737Z,52.10
2019-03-08T20:59:15.420Z,52.90
2019-03-08T21:01:44.869Z,53.20
2019-03-08T21:04:15.866Z,53.30
2019-03-08T21:06:44.090Z,53.60
2019-03-08T21:09:12.828Z,54.00
2019-03-08T21:11:41.892Z,54.00
2019-03-08T21:14:10.741Z,54.00
2019-03-08T21:17:05.769Z,53.70
2019-03-08T21:19:21.791Z,53.50
2019-03-08T21:21:50.587Z,53.30
2019-03-08T21:24:19.068Z,53.50
2019-03-08T21:26:47.725Z,54.00
2019-03-08T21:29:16.216Z,53.50
2019-03-08T21:31:44.784Z,54.20
2019-03-08T21:34:13.561Z,53.90
2019-03-08T21:36:45.830Z,54.40
2019-03-08T21:39:14.422Z,54.60
2019-03-08T21:41:42.895Z,55.20
2019-03-08T21:44:13.614Z,55.20
2019-03-08T21:46:44.636Z,55.10
2019-03-08T21:49:13.738Z,55.70
2019-03-08T21:51:44.076Z,55.50
2019-03-08T21:54:12.739Z,55.80
2019-03-08T21:56:41.459Z,56.10
2019-03-08T21:59:10.632Z,56.10
2019-03-08T22:01:41.084Z,55.90
2019-03-08T22:04:11.380Z,55.80
2019-03-08T22:06:40.050Z,55.90
2019-03-08T22:09:25.059Z,56.10
2019-03-08T22:11:53.592Z,56.60
2019-03-08T22:14:22.085Z,56.60
2019-03-08T22:16:51.128Z,56.70
2019-03-08T22:19:19.613Z,56.60
2019-03-08T22:21:48.171Z,56.70
2019-03-08T22:24:16.909Z,57.20
2019-03-08T22:26:45.480Z,57.30
2019-03-08T22:29:14.164Z,57.60
2019-03-08T22:31:42.749Z,57.50
2019-03-08T22:34:11.408Z,57.80
2019-03-08T22:36:40.146Z,58.00
2019-03-08T22:39:08.800Z,58.40
2019-03-08T22:41:37.382Z,58.70
2019-03-08T22:44:06.135Z,58.70
2019-03-08T22:46:34.783Z,58.70
2019-03-08T22:49:03.448Z,58.70
2019-03-08T22:51:32.106Z,58.60
2019-03-08T22:54:00.617Z,58.60
2019-03-08T22:56:29.064Z,58.80
2019-03-08T22:58:57.856Z,59.30
2019-03-08T23:01:28.226Z,59.40
2019-03-08T23:03:56.989Z,59.50
2019-03-08T23:06:25.647Z,59.60
2019-03-08T23:08:54.332Z,59.90
2019-03-08T23:11:23.154Z,59.90
2019-03-08T23:13:51.702Z,60.40
2019-03-08T23:16:20.398Z,60.60
2019-03-08T23:18:49.036Z,60.90
2019-03-08T23:21:17.481Z,61.40
2019-03-08T23:23:54.196Z,61.20
2019-03-08T23:26:22.875Z,61.20
2019-03-08T23:28:54.233Z,61.00
2019-03-08T23:31:30.961Z,60.50
2019-03-08T23:33:59.556Z,60.50
2019-03-08T23:36:28.174Z,60.60
2019-03-08T23:39:01.389Z,60.80
2019-03-08T23:41:33.312Z,60.60
2019-03-08T23:44:00.097Z,60.90
2019-03-08T23:46:31.618Z,62.00
2019-03-08T23:49:00.339Z,63.00
2019-03-08T23:51:29.004Z,63.30
2019-03-08T23:53:57.784Z,64.00
2019-03-08T23:56:26.320Z,64.60
2019-03-08T23:58:54.955Z,65.20
